Komet — DBBF — position and weather

sailwx.info

Track history (hours):
 
Tides and Currents Weather Stations Pressure Air Temp Water Temp Dewpoint Dewpoint Depression Visibility Wind Speed Wind Dir Waves Ship Positions

Oceanographic research ship Komet (Germany)

Detailed information on ship capabilities available from University of Delaware's Ocean Information Center.

Last reported at 2017-May-22 11:31 UTC. Time now 2017-May-22 21:10 UTC.
Position N 53°31' E 008°35'.

Length 63 m; draft 3.6 m.

Type: Law enforcement. MMSI: 211282860.

Date/timePositionNaut miles runAvg speedWind from/ knotsBaromVisibWave heightAir tempDewpointWater temp
2017-May-22 11:31N 53°31' E 008°35'0 0.0
2017-May-22 11:30N 53°31' E 008°35'0 0.0
2017-May-22 10:19N 53°31' E 008°35'0 0.0
2017-May-22 08:50N 53°31' E 008°35'0 0.0
2017-May-22 08:14N 53°31' E 008°35'0 0.0
2017-May-22 07:44N 53°31' E 008°35'0 0.0
2017-May-22 07:24N 53°31' E 008°35'0 0.0
2017-May-22 06:32N 53°31' E 008°35'0 0.0
2017-May-22 06:27N 53°31' E 008°35'0 0.0
2017-May-22 04:04N 53°31' E 008°35'0 0.0
2017-May-22 03:52N 53°31' E 008°35'0 0.0
2017-May-22 03:04N 53°31' E 008°35'0 0.0
2017-May-22 02:55N 53°31' E 008°35'0 0.0
2017-May-22 00:46N 53°31' E 008°35'0 0.0
2017-May-22 00:09N 53°31' E 008°35'0 0.0
2017-May-22 00:00N 53°31' E 008°35'0 0.0
2017-May-21 22:42N 53°31' E 008°35'0 0.0
2017-May-21 21:45N 53°31' E 008°35'0 0.0
2017-May-21 21:24N 53°31' E 008°35'0 0.0
2017-May-21 18:46N 53°31' E 008°35'0 0.0
2017-May-21 18:29N 53°31' E 008°35'0 0.0
2017-May-21 17:39N 53°31' E 008°35'0 0.0
2017-May-21 16:57N 53°31' E 008°35'0 0.0
2017-May-21 06:17N 53°31' E 008°35'0 0.0
2017-May-21 04:40N 53°31' E 008°35'0 0.0
2017-May-21 02:28N 53°31' E 008°35'0 0.0
2017-May-21 01:58N 53°31' E 008°35'0 0.0
2017-May-20 19:43N 53°31' E 008°35'0 0.0
2017-May-20 11:33N 53°31' E 008°35'0 0.0
2017-May-19 23:02N 53°31' E 008°35'0 0.0
2017-May-19 22:56N 53°31' E 008°35'0 0.0
2017-May-19 22:30N 53°31' E 008°35'0 0.0
2017-May-19 21:08N 53°31' E 008°35'0 0.0
2017-May-19 14:36N 53°31' E 008°35'0 0.0
2017-May-19 14:08N 53°31' E 008°35'0 0.0
2017-May-19 11:54N 53°31' E 008°35'0 0.0
2017-May-19 11:27N 53°31' E 008°35'0 0.0
2017-May-19 11:00N 53°31' E 008°35'0 0.0
2017-May-19 09:52N 53°31' E 008°35'0 0.0
2017-May-18 23:46N 53°31' E 008°35'0 0.0
2017-May-18 23:25N 53°31' E 008°35'0 0.0
2017-May-18 17:52N 53°31' E 008°35'0 0.0
2017-May-18 12:52N 53°31' E 008°35'0 0.0
2017-May-18 11:03N 53°31' E 008°35'0 0.0
2017-May-18 10:06N 53°31' E 008°35'0 0.0
2017-May-18 09:03N 53°31' E 008°35'0 0.0
2017-May-18 05:31N 53°31' E 008°35'0 0.0
2017-May-18 05:21N 53°31' E 008°35'0 0.0
2017-May-17 22:03N 53°31' E 008°35'0 0.0
2017-May-17 15:10N 53°31' E 008°35'0 0.0
2017-May-17 14:43N 53°31' E 008°35'0 0.0
2017-May-17 13:40N 53°31' E 008°35'0 0.0
2017-May-17 13:26N 53°31' E 008°35'0 0.0
2017-May-17 12:59N 53°31' E 008°35'0 0.0
2017-May-17 12:26N 53°31' E 008°35'0 0.0
2017-May-17 11:38N 53°31' E 008°35'0 1.5
2017-May-17 11:24N 53°32' E 008°35'0 0.5
2017-May-17 10:58N 53°32' E 008°35'1 2.6
2017-May-17 10:30N 53°33' E 008°33'6 9.9
2017-May-17 09:52N 53°38' E 008°27'5 9.7
2017-May-17 09:22N 53°41' E 008°21'4 9.3
2017-May-17 08:54N 53°44' E 008°15'4 9.3
2017-May-17 08:30N 53°46' E 008°10'5 8.9
2017-May-17 07:57N 53°51' E 008°07'8 8.6
2017-May-17 06:58N 53°57' E 007°57'5 9.6
2017-May-17 06:29N 54°01' E 007°56'61 1.5
2017-May-15 14:46N 55°00' E 008°26'0 0.0
2017-May-15 13:58N 55°00' E 008°26'0 0.0
2017-May-15 13:19N 55°00' E 008°26'0 0.0
2017-May-15 12:58N 55°00' E 008°26'0 0.0
2017-May-15 12:28N 55°00' E 008°26'0 0.0
2017-May-15 11:58N 55°00' E 008°26'0 0.0
2017-May-15 11:28N 55°00' E 008°26'0 0.0
2017-May-14 15:22N 55°00' E 008°26'0 0.0
2017-May-14 14:46N 55°00' E 008°26'0 0.0
2017-May-14 14:28N 55°00' E 008°26'0 0.0
2017-May-14 13:22N 55°00' E 008°26'0 0.0
2017-May-14 12:58N 55°00' E 008°26'  
Track history (hours):
 
Tides and Currents Weather Stations Pressure Air Temp Water Temp Dewpoint Dewpoint Depression Visibility Wind Speed Wind Dir Waves Ship Positions

Oceanographic research ship Komet (Germany)

Detailed information on ship capabilities available from University of Delaware's Ocean Information Center.

Last reported at 2017-May-22 11:31 UTC. Time now 2017-May-22 21:10 UTC.
Position N 53°31' E 008°35'.

Length 63 m; draft 3.6 m.

Type: Law enforcement. MMSI: 211282860.

Date/timePositionNaut miles runAvg speedWind from/ knotsBaromVisibWave heightAir tempDewpointWater temp
2017-May-22 11:31N 53°31' E 008°35'0 0.0
2017-May-22 11:30N 53°31' E 008°35'0 0.0
2017-May-22 10:19N 53°31' E 008°35'0 0.0
2017-May-22 08:50N 53°31' E 008°35'0 0.0
2017-May-22 08:14N 53°31' E 008°35'0 0.0
2017-May-22 07:44N 53°31' E 008°35'0 0.0
2017-May-22 07:24N 53°31' E 008°35'0 0.0
2017-May-22 06:32N 53°31' E 008°35'0 0.0
2017-May-22 06:27N 53°31' E 008°35'0 0.0
2017-May-22 04:04N 53°31' E 008°35'0 0.0
2017-May-22 03:52N 53°31' E 008°35'0 0.0
2017-May-22 03:04N 53°31' E 008°35'0 0.0
2017-May-22 02:55N 53°31' E 008°35'0 0.0
2017-May-22 00:46N 53°31' E 008°35'0 0.0
2017-May-22 00:09N 53°31' E 008°35'0 0.0
2017-May-22 00:00N 53°31' E 008°35'0 0.0
2017-May-21 22:42N 53°31' E 008°35'0 0.0
2017-May-21 21:45N 53°31' E 008°35'0 0.0
2017-May-21 21:24N 53°31' E 008°35'0 0.0
2017-May-21 18:46N 53°31' E 008°35'0 0.0
2017-May-21 18:29N 53°31' E 008°35'0 0.0
2017-May-21 17:39N 53°31' E 008°35'0 0.0
2017-May-21 16:57N 53°31' E 008°35'0 0.0
2017-May-21 06:17N 53°31' E 008°35'0 0.0
2017-May-21 04:40N 53°31' E 008°35'0 0.0
2017-May-21 02:28N 53°31' E 008°35'0 0.0
2017-May-21 01:58N 53°31' E 008°35'0 0.0
2017-May-20 19:43N 53°31' E 008°35'0 0.0
2017-May-20 11:33N 53°31' E 008°35'0 0.0
2017-May-19 23:02N 53°31' E 008°35'0 0.0
2017-May-19 22:56N 53°31' E 008°35'0 0.0
2017-May-19 22:30N 53°31' E 008°35'0 0.0
2017-May-19 21:08N 53°31' E 008°35'0 0.0
2017-May-19 14:36N 53°31' E 008°35'0 0.0
2017-May-19 14:08N 53°31' E 008°35'0 0.0
2017-May-19 11:54N 53°31' E 008°35'0 0.0
2017-May-19 11:27N 53°31' E 008°35'0 0.0
2017-May-19 11:00N 53°31' E 008°35'0 0.0
2017-May-19 09:52N 53°31' E 008°35'0 0.0
2017-May-18 23:46N 53°31' E 008°35'0 0.0
2017-May-18 23:25N 53°31' E 008°35'0 0.0
2017-May-18 17:52N 53°31' E 008°35'0 0.0
2017-May-18 12:52N 53°31' E 008°35'0 0.0
2017-May-18 11:03N 53°31' E 008°35'0 0.0
2017-May-18 10:06N 53°31' E 008°35'0 0.0
2017-May-18 09:03N 53°31' E 008°35'0 0.0
2017-May-18 05:31N 53°31' E 008°35'0 0.0
2017-May-18 05:21N 53°31' E 008°35'0 0.0
2017-May-17 22:03N 53°31' E 008°35'0 0.0
2017-May-17 15:10N 53°31' E 008°35'0 0.0
2017-May-17 14:43N 53°31' E 008°35'0 0.0
2017-May-17 13:40N 53°31' E 008°35'0 0.0
2017-May-17 13:26N 53°31' E 008°35'0 0.0
2017-May-17 12:59N 53°31' E 008°35'0 0.0
2017-May-17 12:26N 53°31' E 008°35'0 0.0
2017-May-17 11:38N 53°31' E 008°35'0 1.5
2017-May-17 11:24N 53°32' E 008°35'0 0.5
2017-May-17 10:58N 53°32' E 008°35'1 2.6
2017-May-17 10:30N 53°33' E 008°33'6 9.9
2017-May-17 09:52N 53°38' E 008°27'5 9.7
2017-May-17 09:22N 53°41' E 008°21'4 9.3
2017-May-17 08:54N 53°44' E 008°15'4 9.3
2017-May-17 08:30N 53°46' E 008°10'5 8.9
2017-May-17 07:57N 53°51' E 008°07'8 8.6
2017-May-17 06:58N 53°57' E 007°57'5 9.6
2017-May-17 06:29N 54°01' E 007°56'61 1.5
2017-May-15 14:46N 55°00' E 008°26'0 0.0
2017-May-15 13:58N 55°00' E 008°26'0 0.0
2017-May-15 13:19N 55°00' E 008°26'0 0.0
2017-May-15 12:58N 55°00' E 008°26'0 0.0
2017-May-15 12:28N 55°00' E 008°26'0 0.0
2017-May-15 11:58N 55°00' E 008°26'0 0.0
2017-May-15 11:28N 55°00' E 008°26'0 0.0
2017-May-14 15:22N 55°00' E 008°26'0 0.0
2017-May-14 14:46N 55°00' E 008°26'0 0.0
2017-May-14 14:28N 55°00' E 008°26'0 0.0
2017-May-14 13:22N 55°00' E 008°26'0 0.0
2017-May-14 12:58N 55°00' E 008°26'  

Dump ship's entire track history